Time;durP1;ratioP1;P1;durP2;ratioP2;P2;SDS_P1;SDS_P2;PMS_P1;PMS_P2;Temp;Humidity;BMP_temperature;BMP_pressure;BME280_temperature;BME280_humidity;BME280_pressure;Samples;Min_cycle;Max_cycle;Signal;HPM_P1;HPM_P2
2023/04/06 00:01:10;;;;;;;11.93;7.63;;;;;;;2.76;87.05;99842.19;5054036;28;20045;-67
2023/04/06 00:03:36;;;;;;;14.60;7.88;;;;;;;2.76;86.91;99840.41;5053946;28;20047;-67
2023/04/06 00:06:03;;;;;;;12.00;7.85;;;;;;;2.74;87.15;99839.78;5053784;28;20431;-66
2023/04/06 00:08:29;;;;;;;13.30;8.23;;;;;;;2.67;87.47;99831.78;5086234;28;20056;-66
2023/04/06 00:10:54;;;;;;;13.73;8.80;;;;;;;2.69;87.34;99847.34;5052686;28;20036;-65
2023/04/06 00:13:21;;;;;;;11.77;7.88;;;;;;;2.68;87.23;99845.72;5045547;28;20037;-66
2023/04/06 00:15:46;;;;;;;12.68;8.35;;;;;;;2.65;87.20;99843.44;5061619;28;20100;-66
2023/04/06 00:18:12;;;;;;;13.13;8.77;;;;;;;2.65;87.02;99843.44;5063723;28;20048;-64
2023/04/06 00:20:38;;;;;;;13.25;8.27;;;;;;;2.63;87.39;99848.03;5062396;28;20067;-65
2023/04/06 00:23:04;;;;;;;14.43;8.50;;;;;;;2.60;87.26;99851.81;5062118;28;20053;-67
2023/04/06 00:25:30;;;;;;;13.40;9.07;;;;;;;2.58;87.57;99847.72;5063830;28;20044;-65
2023/04/06 00:27:56;;;;;;;15.98;8.60;;;;;;;2.54;87.52;99847.28;5063070;28;20053;-65
2023/04/06 00:30:21;;;;;;;13.00;8.60;;;;;;;2.51;87.36;99850.25;5062610;28;20036;-63
2023/04/06 00:32:47;;;;;;;13.40;8.43;;;;;;;2.55;87.46;99853.31;5063352;28;20123;-66
2023/04/06 00:35:14;;;;;;;13.00;9.02;;;;;;;2.48;87.56;99851.41;5072216;28;20050;-65
2023/04/06 00:37:40;;;;;;;13.80;8.45;;;;;;;2.47;87.54;99843.69;5072091;28;20076;-66
2023/04/06 00:40:06;;;;;;;16.60;9.82;;;;;;;2.46;87.55;99850.75;5072149;28;20523;-65
2023/04/06 00:42:32;;;;;;;11.77;7.90;;;;;;;2.48;87.40;99853.19;5071777;28;20092;-65
2023/04/06 00:44:59;;;;;;;14.23;9.45;;;;;;;2.46;87.40;99848.13;5072205;28;20123;-65
2023/04/06 00:47:26;;;;;;;15.93;10.38;;;;;;;2.41;87.25;99850.47;5055072;28;20131;-67
2023/04/06 00:49:55;;;;;;;11.52;8.13;;;;;;;2.43;87.60;99851.09;5071936;28;20033;-66
2023/04/06 00:52:21;;;;;;;14.30;8.95;;;;;;;2.43;87.53;99845.84;5072043;28;20047;-66
2023/04/06 00:54:49;;;;;;;14.18;9.07;;;;;;;2.38;87.76;99840.34;5073145;28;20040;-66
2023/04/06 00:57:15;;;;;;;14.18;8.90;;;;;;;2.33;87.78;99842.66;5071222;28;20135;-66
2023/04/06 00:59:43;;;;;;;16.48;9.98;;;;;;;2.35;87.43;99851.13;5034786;28;20076;-66
2023/04/06 01:02:11;;;;;;;14.15;9.07;;;;;;;2.32;87.45;99848.06;5051685;28;20072;-66
2023/04/06 01:04:43;;;;;;;16.30;9.23;;;;;;;2.34;87.73;99844.28;5035972;28;20079;-66
2023/04/06 01:07:16;;;;;;;15.25;9.10;;;;;;;2.30;87.87;99842.19;5035070;28;20068;-65
2023/04/06 01:09:53;;;;;;;16.02;9.88;;;;;;;2.26;87.91;99841.72;5019667;28;20033;-66
2023/04/06 01:12:22;;;;;;;13.50;9.32;;;;;;;2.25;88.13;99834.84;5051912;28;20817;-66
2023/04/06 01:14:48;;;;;;;14.05;9.20;;;;;;;2.23;87.70;99834.22;5051545;28;20045;-65
2023/04/06 01:17:15;;;;;;;14.43;8.40;;;;;;;2.25;87.84;99845.31;5051209;28;20049;-66
2023/04/06 01:19:41;;;;;;;13.05;9.23;;;;;;;2.19;87.55;99830.31;5046375;28;20615;-64
2023/04/06 01:22:16;;;;;;;15.98;11.10;;;;;;;2.21;87.68;99833.59;5042298;28;20079;-66
2023/04/06 01:24:46;;;;;;;14.35;8.82;;;;;;;2.17;87.48;99833.09;5062971;28;20531;-65
2023/04/06 01:27:20;;;;;;;11.95;8.23;;;;;;;2.15;87.59;99842.13;5071189;28;20131;-67
2023/04/06 01:30:09;;;;;;;16.30;8.80;;;;;;;2.13;87.78;99834.44;5052283;28;20131;-66
2023/04/06 01:32:41;;;;;;;16.60;9.35;;;;;;;2.09;87.88;99835.78;5035338;28;20127;-66
2023/04/06 01:35:09;;;;;;;15.70;8.77;;;;;;;2.09;87.68;99830.53;5034709;28;20556;-65
2023/04/06 01:37:41;;;;;;;12.95;8.35;;;;;;;2.07;87.79;99827.28;5062392;28;20052;-66
2023/04/06 01:40:11;;;;;;;14.73;8.63;;;;;;;2.03;87.64;99826.81;5071014;28;20052;-64
2023/04/06 01:42:45;;;;;;;11.18;7.35;;;;;;;2.00;88.11;99829.75;5070809;28;20068;-65
2023/04/06 01:45:16;;;;;;;25.05;9.23;;;;;;;2.02;88.00;99829.56;5054228;28;20067;-65
2023/04/06 01:47:43;;;;;;;12.73;8.98;;;;;;;1.99;87.91;99833.34;5070707;28;20357;-66
2023/04/06 01:50:11;;;;;;;16.23;8.98;;;;;;;1.93;87.58;99825.38;5072182;28;20512;-65
2023/04/06 01:52:42;;;;;;;13.52;8.43;;;;;;;1.96;88.05;99830.25;5070657;28;20117;-66
2023/04/06 01:55:10;;;;;;;12.60;8.60;;;;;;;1.96;87.78;99831.06;5055615;28;20047;-66
2023/04/06 01:57:56;;;;;;;12.82;8.23;;;;;;;1.94;87.83;99838.28;5040150;28;20061;-65
2023/04/06 02:00:31;;;;;;;15.55;8.98;;;;;;;1.96;87.84;99843.34;5050639;28;20144;-65
2023/04/06 02:02:57;;;;;;;13.20;8.07;;;;;;;1.92;88.01;99837.63;5051717;28;20091;-66
2023/04/06 02:05:26;;;;;;;12.38;8.02;;;;;;;1.87;87.58;99836.50;5050509;28;20052;-65
2023/04/06 02:07:54;;;;;;;13.60;7.15;;;;;;;1.86;88.07;99837.50;5050668;28;20040;-65
2023/04/06 02:10:29;;;;;;;15.02;8.93;;;;;;;1.88;88.00;99845.97;5050475;28;20064;-65
2023/04/06 02:12:56;;;;;;;12.05;8.27;;;;;;;1.83;87.92;99841.28;5050306;28;20049;-66
2023/04/06 02:15:26;;;;;;;12.00;7.07;;;;;;;1.83;88.16;99843.88;5050429;28;20043;-65
2023/04/06 02:17:53;;;;;;;11.25;8.50;;;;;;;1.86;88.00;99858.41;5017305;28;20045;-66
2023/04/06 02:20:19;;;;;;;12.07;8.32;;;;;;;1.82;87.77;99842.25;5034365;28;20379;-65
2023/04/06 02:22:45;;;;;;;12.52;7.88;;;;;;;1.77;87.88;99849.78;5053508;28;20048;-66
2023/04/06 02:25:10;;;;;;;13.30;8.25;;;;;;;1.77;88.39;99847.19;5070330;28;20037;-65
2023/04/06 02:27:38;;;;;;;14.32;8.30;;;;;;;1.77;87.94;99844.56;5070135;28;20037;-67
2023/04/06 02:30:05;;;;;;;11.68;7.68;;;;;;;1.74;87.76;99845.72;5070262;28;20090;-67
2023/04/06 02:32:31;;;;;;;13.43;8.32;;;;;;;1.69;87.91;99836.75;5053566;28;20460;-66
2023/04/06 02:34:57;;;;;;;15.43;8.70;;;;;;;1.70;87.88;99841.78;5071408;28;20162;-65
2023/04/06 02:37:23;;;;;;;14.52;9.20;;;;;;;1.71;87.98;99853.09;5071238;28;20067;-66
2023/04/06 02:39:50;;;;;;;13.23;9.13;;;;;;;1.73;87.68;99851.91;5071218;28;20060;-65
2023/04/06 02:42:16;;;;;;;13.43;8.75;;;;;;;1.71;88.27;99856.50;5073805;28;20452;-65
2023/04/06 02:44:44;;;;;;;15.05;8.63;;;;;;;1.73;87.89;99867.59;5070544;28;20553;-66
2023/04/06 02:47:10;;;;;;;11.35;6.95;;;;;;;1.69;87.87;99861.09;5069875;28;20052;-66
2023/04/06 02:49:38;;;;;;;14.50;8.75;;;;;;;1.76;87.54;99862.03;5069953;28;20044;-64
2023/04/06 02:52:04;;;;;;;11.50;8.07;;;;;;;1.71;87.89;99868.78;5069910;28;20048;-67
2023/04/06 02:54:33;;;;;;;14.40;8.40;;;;;;;1.74;87.46;99877.09;5069754;28;20337;-65
2023/04/06 02:57:01;;;;;;;12.60;8.10;;;;;;;1.70;87.57;99865.31;5069950;28;20044;-65
2023/04/06 02:59:35;;;;;;;11.02;6.80;;;;;;;1.77;87.26;99868.09;5069951;28;20050;-65
2023/04/06 03:02:16;;;;;;;11.73;8.02;;;;;;;1.79;87.14;99871.34;5069848;28;20457;-65
2023/04/06 03:04:43;;;;;;;13.35;8.15;;;;;;;1.83;87.09;99880.50;5036511;28;20044;-66
2023/04/06 03:07:19;;;;;;;12.27;7.38;;;;;;;1.90;86.84;99873.59;5039377;28;20048;-65
2023/04/06 03:09:45;;;;;;;11.98;7.55;;;;;;;1.93;86.99;99872.44;5069608;28;20036;-66
2023/04/06 03:12:11;;;;;;;12.30;8.10;;;;;;;2.02;86.24;99882.69;5070874;28;20098;-66
2023/04/06 03:15:06;;;;;;;11.95;7.70;;;;;;;2.12;85.92;99884.28;5070929;28;20040;-66
2023/04/06 03:17:32;;;;;;;9.88;6.63;;;;;;;2.15;85.16;99886.59;5069884;28;20056;-68
2023/04/06 03:20:02;;;;;;;12.18;7.93;;;;;;;2.22;84.92;99888.31;5069538;28;20044;-65
2023/04/06 03:22:30;;;;;;;8.85;6.50;;;;;;;2.26;84.60;99886.19;5052536;28;20045;-66
2023/04/06 03:24:56;;;;;;;9.25;6.47;;;;;;;2.37;84.48;99903.31;5070547;28;20051;-65
2023/04/06 03:27:21;;;;;;;12.70;7.50;;;;;;;2.49;83.75;99884.41;5070844;28;20080;-66
2023/04/06 03:29:47;;;;;;;9.82;6.75;;;;;;;2.55;82.96;99898.63;5070899;28;20040;-66
2023/04/06 03:32:18;;;;;;;11.52;6.95;;;;;;;2.64;82.94;99897.56;5069450;28;20079;-65
2023/04/06 03:34:45;;;;;;;11.57;7.10;;;;;;;2.79;81.98;99904.69;5069423;28;20060;-66
2023/04/06 03:37:11;;;;;;;12.00;7.15;;;;;;;2.81;82.10;99892.25;5070749;28;20037;-68
2023/04/06 03:39:44;;;;;;;9.38;5.80;;;;;;;2.86;81.45;99906.44;5069268;28;20052;-67
2023/04/06 03:42:15;;;;;;;10.02;6.85;;;;;;;3.02;80.80;99909.94;5069392;28;20094;-65
2023/04/06 03:44:48;;;;;;;11.88;7.63;;;;;;;3.07;80.47;99907.59;5069088;28;20052;-65
2023/04/06 03:47:14;;;;;;;11.00;6.38;;;;;;;3.18;80.04;99901.97;5069430;28;20044;-66
2023/04/06 03:49:40;;;;;;;10.15;6.85;;;;;;;3.32;79.58;99908.19;5070497;28;20502;-64
2023/04/06 03:52:07;;;;;;;8.98;6.40;;;;;;;3.47;78.86;99905.59;5072944;28;20110;-66
2023/04/06 03:54:33;;;;;;;11.23;6.70;;;;;;;3.59;77.95;99912.88;5074274;28;20489;-65
2023/04/06 03:57:00;;;;;;;10.00;6.53;;;;;;;3.77;77.73;99912.53;5073116;28;20091;-66
2023/04/06 03:59:26;;;;;;;8.65;6.22;;;;;;;3.82;76.98;99912.81;5073906;28;20071;-66
2023/04/06 04:01:52;;;;;;;10.43;6.20;;;;;;;3.90;77.10;99919.75;5056312;28;20044;-66
2023/04/06 04:04:18;;;;;;;10.85;6.20;;;;;;;3.92;76.57;99928.28;5072564;28;20407;-65
2023/04/06 04:06:44;;;;;;;10.73;6.63;;;;;;;3.91;75.99;99918.75;5073977;28;20048;-67
2023/04/06 04:09:09;;;;;;;9.65;6.25;;;;;;;4.08;76.16;99932.50;5055810;28;20147;-65
2023/04/06 04:11:35;;;;;;;10.13;6.60;;;;;;;4.09;75.38;99923.66;5072344;28;20049;-65
2023/04/06 04:14:01;;;;;;;8.27;6.22;;;;;;;4.07;75.32;99930.88;5073774;28;20100;-66
2023/04/06 04:16:27;;;;;;;9.55;6.45;;;;;;;4.25;75.12;99935.75;5072399;28;20048;-66
2023/04/06 04:18:52;;;;;;;8.00;5.50;;;;;;;4.20;74.91;99932.88;5072235;28;20131;-65
2023/04/06 04:21:18;;;;;;;9.45;6.30;;;;;;;4.33;74.66;99933.84;5073870;28;20093;-65
2023/04/06 04:23:44;;;;;;;11.80;6.55;;;;;;;4.48;73.81;99928.56;5072375;28;20519;-65
2023/04/06 04:26:10;;;;;;;13.20;6.55;;;;;;;4.44;74.27;99929.97;5073604;28;20036;-65
2023/04/06 04:28:36;;;;;;;8.90;5.60;;;;;;;4.49;74.18;99937.25;5071998;28;20048;-66
2023/04/06 04:31:01;;;;;;;8.35;5.57;;;;;;;4.53;73.37;99930.66;5073983;28;20932;-66
2023/04/06 04:33:31;;;;;;;7.88;5.70;;;;;;;4.57;73.67;99942.41;5039239;28;20418;-66
2023/04/06 04:35:58;;;;;;;9.63;6.03;;;;;;;4.60;73.09;99939.41;5055847;28;20049;-65
2023/04/06 04:38:29;;;;;;;15.07;6.70;;;;;;;4.50;73.23;99929.22;5072348;28;20066;-65
2023/04/06 04:40:56;;;;;;;9.43;6.63;;;;;;;4.54;73.43;99933.09;5072078;28;20053;-66
2023/04/06 04:43:22;;;;;;;9.30;5.90;;;;;;;4.55;73.47;99928.66;5071938;28;20537;-66
2023/04/06 04:45:47;;;;;;;9.93;5.95;;;;;;;4.53;73.09;99930.66;5073338;28;20374;-65
2023/04/06 04:48:26;;;;;;;9.13;6.10;;;;;;;4.51;73.77;99937.91;5071921;28;20067;-65
2023/04/06 04:51:01;;;;;;;8.32;5.28;;;;;;;4.47;73.87;99939.25;5071874;28;20402;-65
2023/04/06 04:53:35;;;;;;;8.45;6.43;;;;;;;4.56;74.15;99930.28;5071664;28;20101;-66
2023/04/06 04:56:12;;;;;;;8.13;5.38;;;;;;;4.55;73.44;99929.47;5071553;28;20047;-65
2023/04/06 04:58:38;;;;;;;10.07;5.93;;;;;;;4.53;73.99;99934.09;5071592;28;20171;-65
2023/04/06 05:01:04;;;;;;;9.50;5.00;;;;;;;4.54;74.09;99943.59;5071152;28;20124;-65
2023/04/06 05:03:30;;;;;;;7.75;4.57;;;;;;;4.41;73.34;99938.19;5071409;28;20506;-65
2023/04/06 05:06:03;;;;;;;10.80;5.90;;;;;;;4.46;73.97;99941.06;5071451;28;20048;-62
2023/04/06 05:08:33;;;;;;;7.78;5.22;;;;;;;4.40;73.97;99928.69;5071607;28;20094;-63
2023/04/06 05:11:01;;;;;;;9.63;5.95;;;;;;;4.49;74.57;99951.19;5069345;28;20045;-62
2023/04/06 05:13:30;;;;;;;8.15;5.53;;;;;;;4.45;73.75;99959.63;5067670;28;20044;-63
2023/04/06 05:15:57;;;;;;;9.88;5.70;;;;;;;4.49;74.24;99939.88;5067884;28;20055;-63
2023/04/06 05:18:27;;;;;;;10.25;5.47;;;;;;;4.48;73.63;99954.03;5067748;28;20117;-63
2023/04/06 05:20:54;;;;;;;8.10;5.38;;;;;;;4.50;73.47;99949.38;5067313;28;20446;-63
2023/04/06 05:23:26;;;;;;;8.60;5.28;;;;;;;4.46;74.29;99945.50;5052196;28;20070;-63
2023/04/06 05:25:52;;;;;;;10.32;5.70;;;;;;;4.60;74.32;99955.16;5068174;28;20033;-62
2023/04/06 05:28:21;;;;;;;9.13;5.35;;;;;;;4.51;74.59;99951.84;5070195;28;20044;-62
2023/04/06 05:30:47;;;;;;;11.45;5.70;;;;;;;4.57;74.87;99944.22;5071512;28;20486;-63
2023/04/06 05:33:14;;;;;;;8.68;5.38;;;;;;;4.71;73.39;99952.06;5070980;28;20053;-63
2023/04/06 05:36:00;;;;;;;8.57;5.80;;;;;;;4.80;73.37;99955.41;5071222;28;20089;-62
2023/04/06 05:38:26;;;;;;;7.78;5.18;;;;;;;4.75;73.10;99958.56;5069714;28;20616;-65
2023/04/06 05:40:54;;;;;;;7.05;5.00;;;;;;;4.81;72.43;99954.38;5047876;28;20182;-62
2023/04/06 05:43:24;;;;;;;6.43;4.22;;;;;;;4.75;72.76;99955.13;5049968;28;20069;-63
2023/04/06 05:45:54;;;;;;;8.85;4.72;;;;;;;4.84;72.32;99951.38;5050342;28;20037;-64
2023/04/06 05:48:20;;;;;;;9.48;5.03;;;;;;;4.85;72.58;99946.94;5046269;28;20045;-63
2023/04/06 05:50:50;;;;;;;8.90;5.03;;;;;;;4.95;72.96;99948.28;5048511;28;20140;-64
2023/04/06 05:53:20;;;;;;;8.40;5.20;;;;;;;4.94;72.07;99944.03;5048958;28;20044;-66
2023/04/06 05:55:52;;;;;;;9.13;5.07;;;;;;;5.01;72.66;99944.09;5047283;28;20049;-65
2023/04/06 05:58:19;;;;;;;10.07;4.10;;;;;;;5.07;71.81;99955.66;5046920;28;20040;-65
2023/04/06 06:00:47;;;;;;;9.30;5.40;;;;;;;5.08;71.78;99954.66;5047688;28;20367;-65
2023/04/06 06:03:15;;;;;;;6.47;4.50;;;;;;;5.06;71.74;99956.66;5046882;28;20049;-66
2023/04/06 06:05:46;;;;;;;5.63;3.92;;;;;;;5.04;72.07;99956.84;5046861;28;20044;-63
2023/04/06 06:08:21;;;;;;;6.22;4.95;;;;;;;5.09;71.66;99957.13;5046177;28;20057;-62
2023/04/06 06:10:50;;;;;;;7.53;4.90;;;;;;;5.25;71.53;99953.41;5013126;28;20037;-63
2023/04/06 06:13:19;;;;;;;12.52;5.38;;;;;;;5.39;71.02;99949.91;5044717;28;20045;-63
2023/04/06 06:15:45;;;;;;;9.90;5.13;;;;;;;5.46;70.57;99945.50;5044668;28;20044;-63
2023/04/06 06:18:12;;;;;;;9.85;5.10;;;;;;;5.54;70.12;99951.63;5045921;28;20869;-64
2023/04/06 06:20:38;;;;;;;6.63;4.55;;;;;;;5.70;69.49;99946.88;5045400;28;20048;-64
2023/04/06 06:23:05;;;;;;;8.80;4.68;;;;;;;5.72;69.46;99941.44;5060386;28;20051;-66
2023/04/06 06:25:32;;;;;;;9.77;4.82;;;;;;;5.88;69.64;99953.47;5065162;28;20082;-65
2023/04/06 06:27:59;;;;;;;10.55;4.95;;;;;;;6.09;68.54;99950.81;5065272;28;20049;-65
2023/04/06 06:30:26;;;;;;;6.93;4.38;;;;;;;6.08;68.26;99954.44;5048971;28;20075;-64
2023/04/06 06:32:53;;;;;;;7.40;4.55;;;;;;;6.16;68.67;99960.56;5063371;28;20093;-65
2023/04/06 06:35:21;;;;;;;11.95;5.53;;;;;;;6.25;68.21;99962.84;5033723;28;20154;-66
2023/04/06 06:37:48;;;;;;;10.80;5.07;;;;;;;6.29;67.81;99958.00;5033313;28;20365;-63
2023/04/06 06:40:18;;;;;;;10.65;5.13;;;;;;;6.25;67.98;99954.13;5065364;28;20068;-65
2023/04/06 06:42:46;;;;;;;7.95;4.93;;;;;;;6.27;67.60;99941.59;5017039;28;20049;-64
2023/04/06 06:45:26;;;;;;;6.60;4.53;;;;;;;6.52;66.87;99974.31;5067548;28;20060;-66
2023/04/06 06:47:52;;;;;;;10.02;4.57;;;;;;;6.51;66.78;99961.34;5066634;28;20037;-64
2023/04/06 06:50:18;;;;;;;8.60;4.93;;;;;;;6.57;67.14;99965.81;5068371;28;20066;-64
2023/04/06 06:52:44;;;;;;;6.25;4.20;;;;;;;6.64;66.40;99956.09;5050530;28;20040;-64
2023/04/06 06:55:11;;;;;;;7.30;4.57;;;;;;;6.71;65.97;99954.31;5050017;28;20056;-63
2023/04/06 06:57:38;;;;;;;8.38;4.50;;;;;;;6.74;66.32;99956.56;5050278;28;20041;-64
2023/04/06 07:00:07;;;;;;;8.73;3.83;;;;;;;6.86;66.04;99953.34;5065832;28;20155;-65
2023/04/06 07:02:35;;;;;;;7.82;4.35;;;;;;;6.95;65.83;99952.97;5049125;28;20036;-63
2023/04/06 07:05:02;;;;;;;7.03;4.45;;;;;;;7.02;65.47;99939.78;5051843;28;20044;-65
2023/04/06 07:07:31;;;;;;;8.07;4.43;;;;;;;7.12;64.75;99947.28;5066880;28;20043;-63
2023/04/06 07:09:58;;;;;;;5.43;4.40;;;;;;;7.16;64.75;99949.34;5065779;28;20045;-65
2023/04/06 07:12:23;;;;;;;7.47;4.18;;;;;;;7.21;64.51;99952.19;5067059;28;20113;-63
2023/04/06 07:14:49;;;;;;;7.30;4.75;;;;;;;7.27;64.55;99953.22;5068909;28;20077;-65
2023/04/06 07:17:15;;;;;;;8.15;4.38;;;;;;;7.34;64.72;99959.28;5049639;28;20055;-63
2023/04/06 07:19:41;;;;;;;9.60;4.80;;;;;;;7.45;64.22;99947.34;5067291;28;20135;-65
2023/04/06 07:22:06;;;;;;;8.82;4.55;;;;;;;7.50;63.95;99969.47;5065772;28;20063;-67
2023/04/06 07:24:32;;;;;;;6.43;4.53;;;;;;;7.54;63.73;99955.88;5050399;28;20112;-67
2023/04/06 07:27:01;;;;;;;8.85;4.30;;;;;;;7.64;63.86;99948.34;5071052;28;20423;-65
2023/04/06 07:29:27;;;;;;;12.13;5.85;;;;;;;7.74;63.38;99956.66;5070343;28;20056;-64
2023/04/06 07:31:54;;;;;;;10.23;4.30;;;;;;;7.81;62.94;99944.25;5069809;28;20044;-65
2023/04/06 07:34:21;;;;;;;6.57;4.20;;;;;;;7.91;62.93;99957.88;5068705;28;20072;-63
2023/04/06 07:36:47;;;;;;;6.30;3.85;;;;;;;7.98;62.46;99949.91;5071142;28;20052;-63
2023/04/06 07:39:13;;;;;;;8.43;4.32;;;;;;;7.98;62.02;99957.84;5050536;28;20043;-64
2023/04/06 07:41:40;;;;;;;8.80;4.38;;;;;;;8.01;62.09;99940.78;5066669;28;20090;-65
2023/04/06 07:44:06;;;;;;;11.27;4.45;;;;;;;8.06;62.18;99938.31;5050841;28;20453;-65
2023/04/06 07:46:32;;;;;;;6.45;3.88;;;;;;;8.14;61.12;99952.09;5065294;28;20651;-67
2023/04/06 07:49:01;;;;;;;6.05;3.67;;;;;;;8.19;61.31;99954.13;5066474;28;20044;-64
2023/04/06 07:51:29;;;;;;;;;;;;;;;8.38;60.74;99965.63;5068373;28;20102;-66
2023/04/06 07:53:55;;;;;;;8.27;3.60;;;;;;;8.39;60.62;99970.75;5051138;28;19959;-67
2023/04/06 07:56:21;;;;;;;5.22;3.60;;;;;;;8.38;59.49;99955.94;5067817;28;20397;-65
2023/04/06 07:58:47;;;;;;;5.68;3.60;;;;;;;8.45;59.38;99961.19;5069391;28;20068;-66
2023/04/06 08:01:13;;;;;;;4.28;2.95;;;;;;;8.44;59.08;99953.47;5070547;28;20037;-68
2023/04/06 08:03:39;;;;;;;6.28;3.38;;;;;;;8.50;58.34;99956.09;5067267;28;20389;-65
2023/04/06 08:06:05;;;;;;;10.20;3.75;;;;;;;8.54;58.71;99935.34;5067949;28;20041;-65
2023/04/06 08:08:32;;;;;;;10.65;4.10;;;;;;;8.58;57.79;99955.03;5070783;28;20036;-64
2023/04/06 08:10:57;;;;;;;4.90;3.30;;;;;;;8.63;57.11;99976.38;5068964;28;20052;-65
2023/04/06 08:13:23;;;;;;;4.70;3.17;;;;;;;8.67;57.20;99951.13;5070913;28;20055;-64
2023/04/06 08:15:49;;;;;;;5.82;3.83;;;;;;;8.69;57.28;99946.44;5035250;28;20055;-64
2023/04/06 08:18:15;;;;;;;7.93;3.58;;;;;;;8.73;57.58;99952.13;5069792;28;20070;-66
2023/04/06 08:20:41;;;;;;;11.40;3.90;;;;;;;8.91;57.58;99952.22;5069716;28;20048;-64
2023/04/06 08:23:09;;;;;;;6.38;3.50;;;;;;;8.95;56.56;99958.72;5066936;28;20523;-64
2023/04/06 08:25:36;;;;;;;7.40;3.60;;;;;;;8.92;55.84;99955.69;5069998;28;20085;-63
2023/04/06 08:28:02;;;;;;;6.07;3.50;;;;;;;8.95;56.55;99948.13;5069320;28;20077;-65
2023/04/06 08:30:29;;;;;;;4.82;2.60;;;;;;;8.97;56.29;99927.59;5069754;28;20056;-65
2023/04/06 08:32:54;;;;;;;6.95;3.10;;;;;;;9.08;55.65;99934.81;5068433;28;20612;-66
2023/04/06 08:35:20;;;;;;;10.07;3.30;;;;;;;9.21;55.28;99941.88;5053104;28;20084;-64
2023/04/06 08:37:46;;;;;;;4.70;2.97;;;;;;;9.23;54.36;99966.25;5069039;28;20132;-65
2023/04/06 08:40:13;;;;;;;5.50;2.97;;;;;;;9.31;54.06;99947.47;5069835;28;20139;-64
2023/04/06 08:42:44;;;;;;;7.97;3.53;;;;;;;9.35;54.20;99931.16;5069473;28;20505;-65
2023/04/06 08:45:10;;;;;;;5.75;3.40;;;;;;;9.43;53.91;99926.41;5069758;28;20041;-63
2023/04/06 08:47:36;;;;;;;7.85;3.25;;;;;;;9.57;52.87;99952.78;5051579;28;20040;-68
2023/04/06 08:50:04;;;;;;;10.43;3.30;;;;;;;9.65;53.15;99948.03;5071205;28;20045;-67
2023/04/06 08:52:31;;;;;;;4.97;2.80;;;;;;;9.70;52.59;99921.69;5069907;28;20052;-68
2023/04/06 08:54:57;;;;;;;5.90;2.67;;;;;;;9.72;51.73;99940.81;5068172;28;20052;-66
2023/04/06 08:57:24;;;;;;;6.43;3.25;;;;;;;9.82;51.63;99932.38;5067976;28;20131;-66
2023/04/06 08:59:51;;;;;;;6.40;3.42;;;;;;;9.92;52.02;99929.25;5066293;28;20048;-68
2023/04/06 09:02:18;;;;;;;5.13;2.75;;;;;;;10.02;51.53;99925.03;5069526;28;20059;-65
2023/04/06 09:04:54;;;;;;;7.97;3.03;;;;;;;10.04;51.18;99916.06;5068616;28;20514;-67
2023/04/06 09:07:21;;;;;;;3.33;2.88;;;;;;;10.05;50.75;99918.47;5067231;28;20044;-66
2023/04/06 09:09:51;;;;;;;6.15;3.15;;;;;;;10.06;50.89;99919.28;5069083;28;20049;-65
2023/04/06 09:12:23;;;;;;;6.55;2.95;;;;;;;10.11;50.66;99940.63;5069336;28;20555;-65
2023/04/06 09:14:49;;;;;;;6.43;2.80;;;;;;;10.15;50.80;99918.78;5068931;28;20447;-66
2023/04/06 09:17:22;;;;;;;10.07;3.05;;;;;;;10.21;50.51;99925.84;5067639;28;20040;-68
2023/04/06 09:19:48;;;;;;;7.57;3.08;;;;;;;10.32;50.58;99924.31;5067986;28;20155;-66
2023/04/06 09:22:14;;;;;;;9.20;3.85;;;;;;;10.41;49.57;99924.81;5065863;28;20032;-65
2023/04/06 09:24:47;;;;;;;6.00;3.00;;;;;;;10.49;49.91;99931.66;5067567;28;20048;-68
2023/04/06 09:27:13;;;;;;;12.50;3.00;;;;;;;10.52;48.67;99910.81;5067646;28;20166;-66
2023/04/06 09:29:41;;;;;;;8.52;3.22;;;;;;;10.55;48.28;99920.97;5068415;28;20109;-67
2023/04/06 09:32:25;;;;;;;13.38;3.80;;;;;;;10.61;47.87;99921.94;5069028;28;20047;-63
2023/04/06 09:34:52;;;;;;;8.32;2.60;;;;;;;10.65;47.36;99939.81;5027363;28;20047;-66
2023/04/06 09:37:19;;;;;;;8.40;2.97;;;;;;;10.70;47.71;99925.88;5071537;28;20032;-66
2023/04/06 09:39:46;;;;;;;9.52;3.10;;;;;;;10.65;47.71;99931.06;5075179;28;20047;-66
2023/04/06 09:42:27;;;;;;;8.75;3.00;;;;;;;10.62;47.17;99931.50;5072133;28;20044;-65
2023/04/06 09:44:54;;;;;;;6.35;3.00;;;;;;;10.65;47.45;99913.31;5053398;28;20072;-66
2023/04/06 09:47:22;;;;;;;7.35;2.85;;;;;;;10.66;47.11;99925.53;5070248;28;20041;-67
2023/04/06 09:49:50;;;;;;;11.23;3.70;;;;;;;10.72;47.25;99920.38;5069711;28;20059;-67
2023/04/06 09:52:18;;;;;;;5.22;2.50;;;;;;;10.83;46.90;99925.72;5069232;28;20421;-68
2023/04/06 09:54:45;;;;;;;8.77;2.67;;;;;;;10.84;47.03;99929.97;5069523;28;20040;-66
2023/04/06 09:57:22;;;;;;;10.77;3.10;;;;;;;10.89;45.88;99939.91;5070435;28;20386;-68
2023/04/06 10:00:12;;;;;;;6.50;2.95;;;;;;;10.93;46.07;99924.34;5070552;28;20048;-69
2023/04/06 10:02:59;;;;;;;2.95;2.20;;;;;;;10.93;45.61;99932.31;5071425;28;20036;-68
2023/04/06 10:05:36;;;;;;;6.05;2.60;;;;;;;10.91;46.13;99925.41;5070085;28;20786;-66
2023/04/06 10:08:07;;;;;;;6.45;2.70;;;;;;;10.91;45.67;99928.03;5069523;28;20089;-65
2023/04/06 10:10:32;;;;;;;;;;;;;;;11.01;46.09;99903.63;5070429;28;20490;-67
2023/04/06 10:12:59;;;;;;;4.05;2.67;;;;;;;11.05;45.87;99910.06;5053121;28;19978;-68
2023/04/06 10:15:27;;;;;;;5.20;2.88;;;;;;;11.10;46.01;99920.81;5071293;28;20044;-65
2023/04/06 10:17:53;;;;;;;4.45;2.80;;;;;;;11.12;45.59;99902.84;5053397;28;20086;-65
2023/04/06 10:20:44;;;;;;;10.10;3.55;;;;;;;11.21;46.24;99907.81;5071388;28;20045;-65
2023/04/06 10:23:19;;;;;;;6.22;3.05;;;;;;;11.29;45.83;99920.72;5070888;28;20135;-65
2023/04/06 10:25:59;;;;;;;7.43;2.80;;;;;;;11.32;45.95;99939.69;5069388;28;20048;-66
2023/04/06 10:28:26;;;;;;;4.25;2.90;;;;;;;11.24;46.12;99913.47;5069892;28;20083;-66
2023/04/06 10:31:27;;;;;;;8.30;2.90;;;;;;;11.23;46.05;99922.44;5069693;28;20128;-67
2023/04/06 10:33:55;;;;;;;6.00;2.97;;;;;;;11.30;45.27;99909.91;5071095;28;20048;-68
2023/04/06 10:36:26;;;;;;;7.03;2.88;;;;;;;11.30;45.78;99899.28;5069542;28;20114;-67
2023/04/06 10:39:03;;;;;;;6.97;2.88;;;;;;;11.39;45.19;99894.44;5070846;28;20075;-67
2023/04/06 10:41:33;;;;;;;10.48;3.22;;;;;;;11.41;45.01;99915.44;5069311;28;20036;-68
2023/04/06 10:43:59;;;;;;;3.78;2.90;;;;;;;11.37;45.20;99910.59;5070480;28;20064;-68
2023/04/06 10:46:26;;;;;;;5.50;3.25;;;;;;;11.45;44.54;99914.75;5052841;28;20044;-68
2023/04/06 10:48:52;;;;;;;4.97;3.10;;;;;;;11.47;44.60;99925.97;5069212;28;20040;-68
2023/04/06 10:51:20;;;;;;;5.55;3.00;;;;;;;11.48;45.31;99935.53;5070843;28;20508;-68
2023/04/06 10:53:48;;;;;;;4.30;2.50;;;;;;;11.46;45.09;99913.72;5069317;28;20037;-68
2023/04/06 10:56:16;;;;;;;5.03;2.85;;;;;;;11.49;45.09;99934.47;5069669;28;20323;-67
2023/04/06 10:58:46;;;;;;;6.75;2.80;;;;;;;11.52;45.12;99919.94;5070853;28;20402;-67
2023/04/06 11:01:12;;;;;;;4.57;2.85;;;;;;;11.56;44.71;99895.38;5074812;28;20405;-66
2023/04/06 11:03:52;;;;;;;6.43;3.35;;;;;;;11.62;45.05;99903.44;5056733;28;20131;-68
2023/04/06 11:06:22;;;;;;;5.82;2.90;;;;;;;11.64;45.05;99910.13;5074870;28;20044;-68
2023/04/06 11:08:48;;;;;;;4.10;2.70;;;;;;;11.67;45.13;99900.91;5065847;28;20178;-68
2023/04/06 11:11:16;;;;;;;9.30;5.03;;;;;;;11.73;44.98;99905.28;5064049;28;20498;-67
2023/04/06 11:13:42;;;;;;;7.78;3.33;;;;;;;11.76;44.48;99895.00;5064941;28;20024;-66
2023/04/06 11:16:18;;;;;;;6.88;3.40;;;;;;;11.81;44.72;99916.34;5074157;28;20486;-66
2023/04/06 11:18:51;;;;;;;5.22;3.35;;;;;;;11.84;44.19;99901.81;5073438;28;20040;-66
2023/04/06 11:21:17;;;;;;;6.90;4.00;;;;;;;11.81;44.16;99903.06;5074371;28;20052;-66
2023/04/06 11:23:43;;;;;;;8.43;4.10;;;;;;;11.85;43.71;99892.81;5073060;28;20148;-65
2023/04/06 11:26:13;;;;;;;4.80;3.25;;;;;;;11.87;44.14;99900.56;5074549;28;20119;-66
2023/04/06 11:28:45;;;;;;;8.27;3.15;;;;;;;11.89;44.05;99920.56;5068044;28;20044;-66
2023/04/06 11:31:11;;;;;;;7.72;2.92;;;;;;;11.93;44.15;99920.88;5062908;28;20391;-64
2023/04/06 11:33:38;;;;;;;7.53;2.90;;;;;;;11.94;43.87;99883.47;5062921;28;20040;-64
2023/04/06 11:36:05;;;;;;;5.88;2.70;;;;;;;11.98;43.59;99902.41;5060907;28;20045;-64
2023/04/06 11:38:31;;;;;;;8.70;2.80;;;;;;;12.00;44.56;99895.81;5062853;28;20368;-62
2023/04/06 11:40:56;;;;;;;4.50;2.58;;;;;;;12.05;43.36;99906.53;5064626;28;20087;-62
2023/04/06 11:43:31;;;;;;;5.47;2.38;;;;;;;11.95;43.66;99878.97;5063680;28;20571;-63